createdAt,value
2022-08-03T00:02:23.272Z,99928.94
2022-08-03T00:07:25.085Z,99922.50
2022-08-03T00:12:26.824Z,99921.38
2022-08-03T00:17:28.528Z,99936.47
2022-08-03T00:22:31.248Z,99922.28
2022-08-03T00:27:39.130Z,99927.44
2022-08-03T00:32:45.051Z,99923.59
2022-08-03T00:37:47.469Z,99919.28
2022-08-03T00:43:00.416Z,99922.72
2022-08-03T00:48:04.156Z,99926.66
2022-08-03T00:53:10.196Z,99925.69
2022-08-03T00:58:12.367Z,99920.13
2022-08-03T01:03:14.079Z,99918.13
2022-08-03T01:08:27.366Z,99919.16
2022-08-03T01:14:03.626Z,99922.25
2022-08-03T01:19:27.739Z,99920.00
2022-08-03T01:24:45.886Z,99919.50
2022-08-03T01:30:02.469Z,99913.50
2022-08-03T01:35:09.634Z,99910.31
2022-08-03T01:40:13.543Z,99908.09
2022-08-03T01:45:20.048Z,99916.03
2022-08-03T01:50:26.000Z,99913.13
2022-08-03T01:55:32.138Z,99912.69
2022-08-03T02:00:37.502Z,99910.06
2022-08-03T02:05:45.345Z,99902.28
2022-08-03T02:10:48.878Z,99906.91
2022-08-03T02:15:52.953Z,99906.25
2022-08-03T02:20:55.888Z,99912.06
2022-08-03T02:26:01.910Z,99909.84
2022-08-03T02:31:08.945Z,99915.97
2022-08-03T02:36:14.429Z,99912.09
2022-08-03T02:41:21.262Z,99909.81
2022-08-03T02:46:28.933Z,99910.38
2022-08-03T02:51:33.627Z,99911.75
2022-08-03T02:56:37.319Z,99915.50
2022-08-03T03:01:40.132Z,99912.28
2022-08-03T03:06:43.104Z,99901.00
2022-08-03T03:11:50.906Z,99902.13
2022-08-03T03:16:57.987Z,99906.81
2022-08-03T03:22:04.533Z,99901.44
2022-08-03T03:27:06.547Z,99906.75
2022-08-03T03:32:09.237Z,99914.22
2022-08-03T03:37:11.263Z,99912.69
2022-08-03T03:42:13.280Z,99918.97
2022-08-03T03:47:15.256Z,99916.88
2022-08-03T03:52:18.378Z,99913.53
2022-08-03T03:57:20.141Z,99913.56
2022-08-03T04:02:22.032Z,99913.28
2022-08-03T04:07:45.323Z,99918.31
2022-08-03T04:12:50.637Z,99916.94
2022-08-03T04:17:55.648Z,99913.38
2022-08-03T04:23:00.852Z,99912.53
2022-08-03T04:28:29.701Z,99915.72
2022-08-03T04:33:29.655Z,99921.84
2022-08-03T04:38:36.734Z,99926.41
2022-08-03T04:43:40.920Z,99912.22
2022-08-03T04:48:44.766Z,99913.41
2022-08-03T04:53:46.825Z,99897.66
2022-08-03T04:58:48.661Z,99898.41
2022-08-03T05:03:50.673Z,99895.25
2022-08-03T05:08:52.416Z,99899.38
2022-08-03T05:13:54.226Z,99895.88
2022-08-03T05:18:55.971Z,99899.41
2022-08-03T05:23:57.677Z,99904.47
2022-08-03T05:28:59.393Z,99923.81
2022-08-03T05:34:01.359Z,99922.22
2022-08-03T05:39:03.290Z,99926.84
2022-08-03T05:44:05.516Z,99931.78
2022-08-03T05:49:07.262Z,99932.91
2022-08-03T05:54:09.157Z,99935.00
2022-08-03T05:59:35.748Z,99935.47
2022-08-03T06:04:32.693Z,99931.41
2022-08-03T06:10:33.733Z,99931.72
2022-08-03T06:14:56.775Z,99934.31
2022-08-03T06:19:58.586Z,99942.97
2022-08-03T06:25:04.102Z,99934.38
2022-08-03T06:30:08.859Z,99935.75
2022-08-03T06:35:12.553Z,99940.25
2022-08-03T06:40:16.666Z,99936.88
2022-08-03T06:45:26.318Z,99934.31
2022-08-03T06:50:34.914Z,99929.88
2022-08-03T06:55:42.317Z,99927.72
2022-08-03T07:00:44.262Z,99925.72
2022-08-03T07:05:47.326Z,99935.53
2022-08-03T07:10:49.068Z,99938.72
2022-08-03T07:15:55.430Z,99930.09
2022-08-03T07:20:58.886Z,99930.31
2022-08-03T07:26:00.625Z,99943.31
2022-08-03T07:31:02.404Z,99943.16
2022-08-03T07:36:04.602Z,99944.66
2022-08-03T07:41:06.357Z,99944.78
2022-08-03T07:46:08.064Z,99939.22
2022-08-03T07:51:09.821Z,99927.47
2022-08-03T07:56:11.609Z,99919.66
2022-08-03T08:01:15.004Z,99918.34
2022-08-03T08:06:18.057Z,99904.78
2022-08-03T08:11:22.320Z,99905.78
2022-08-03T08:16:24.065Z,99885.34
2022-08-03T08:21:26.038Z,99885.03
2022-08-03T08:26:47.912Z,99885.81
2022-08-03T08:31:50.494Z,99883.63
2022-08-03T08:36:53.217Z,99876.22
2022-08-03T08:41:56.155Z,99870.00
2022-08-03T08:47:01.317Z,99878.00
2022-08-03T08:52:25.496Z,99869.22
2022-08-03T08:57:42.907Z,99869.31
2022-08-03T09:02:47.014Z,99865.88
2022-08-03T09:07:49.680Z,99864.91
2022-08-03T09:12:53.255Z,99858.97
2022-08-03T09:18:03.838Z,99864.06
2022-08-03T09:24:00.578Z,99851.19
2022-08-03T09:29:00.435Z,99842.25
2022-08-03T09:34:06.230Z,99840.25
2022-08-03T09:39:11.506Z,99833.28
2022-08-03T09:44:24.412Z,99827.66
2022-08-03T09:49:30.925Z,99825.19
2022-08-03T09:54:35.752Z,99821.31
2022-08-03T09:59:41.081Z,99819.88
2022-08-03T10:04:52.740Z,99819.19
2022-08-03T10:10:31.714Z,99812.22
2022-08-03T10:16:23.485Z,99799.16
2022-08-03T10:20:53.140Z,99798.72
2022-08-03T10:26:01.866Z,99788.94
2022-08-03T10:31:07.890Z,99789.59
2022-08-03T10:36:12.712Z,99777.16
2022-08-03T10:41:17.734Z,99769.41
2022-08-03T10:46:21.946Z,99766.88
2022-08-03T10:51:30.750Z,99761.84
2022-08-03T10:56:54.452Z,99764.53
2022-08-03T11:01:59.881Z,99758.91
2022-08-03T11:07:22.947Z,99749.50
2022-08-03T11:12:33.045Z,99743.81
2022-08-03T11:17:46.942Z,99742.28
2022-08-03T11:23:03.019Z,99742.47
2022-08-03T11:28:29.075Z,99727.19
2022-08-03T11:33:38.596Z,99736.97
2022-08-03T11:39:20.925Z,99725.38
2022-08-03T11:44:41.897Z,99729.50
2022-08-03T11:49:51.308Z,99728.09
2022-08-03T11:55:05.874Z,99729.38
2022-08-03T12:00:30.645Z,99722.06
2022-08-03T12:05:40.656Z,99723.34
2022-08-03T12:10:48.894Z,99711.09
2022-08-03T12:15:56.327Z,99711.94
2022-08-03T12:21:06.799Z,99712.03
2022-08-03T12:26:10.786Z,99697.53
2022-08-03T12:31:26.702Z,99696.56
2022-08-03T12:36:30.561Z,99690.16
2022-08-03T12:41:37.690Z,99694.78
2022-08-03T12:46:47.445Z,99694.63
2022-08-03T12:52:02.673Z,99683.22
2022-08-03T12:57:15.991Z,99683.44
2022-08-03T13:02:23.454Z,99680.50
2022-08-03T13:07:25.369Z,99677.38
2022-08-03T13:12:29.169Z,99675.72
2022-08-03T13:17:32.995Z,99685.91
2022-08-03T13:22:37.033Z,99665.34
2022-08-03T13:28:04.739Z,99662.59
2022-08-03T13:33:10.751Z,99668.31
2022-08-03T13:38:13.014Z,99655.09
2022-08-03T13:43:17.451Z,99651.09
2022-08-03T13:48:36.881Z,99653.19
2022-08-03T13:53:39.275Z,99647.16
2022-08-03T13:58:51.392Z,99644.38
2022-08-03T14:03:56.653Z,99637.06
2022-08-03T14:09:05.010Z,99635.38
2022-08-03T14:14:06.801Z,99621.28
2022-08-03T14:19:30.386Z,99619.09
2022-08-03T14:24:32.494Z,99625.47
2022-08-03T14:29:34.188Z,99619.25
2022-08-03T14:34:35.941Z,99604.75
2022-08-03T14:45:04.670Z,99598.38
2022-08-03T14:50:38.784Z,99595.19
2022-08-03T14:55:38.944Z,99596.88
2022-08-03T15:00:53.980Z,99585.34
2022-08-03T15:05:57.187Z,99582.06
2022-08-03T15:10:58.998Z,99580.41
2022-08-03T15:16:00.721Z,99577.28
2022-08-03T15:21:02.522Z,99568.38
2022-08-03T15:26:33.903Z,99575.28
2022-08-03T15:31:26.062Z,99561.78
2022-08-03T15:36:27.768Z,99560.00
2022-08-03T15:41:29.696Z,99558.78
2022-08-03T15:46:31.798Z,99554.78
2022-08-03T15:51:33.655Z,99553.00
2022-08-03T15:56:35.692Z,99548.44
2022-08-03T16:01:38.655Z,99538.81
2022-08-03T16:06:40.708Z,99534.41
2022-08-03T16:11:42.438Z,99533.53
2022-08-03T16:16:45.715Z,99537.56
2022-08-03T16:21:49.986Z,99534.19
2022-08-03T16:26:51.945Z,99531.91
2022-08-03T16:31:55.472Z,99527.34
2022-08-03T16:36:57.240Z,99530.50
2022-08-03T16:42:01.571Z,99533.03
2022-08-03T16:47:03.866Z,99531.22
2022-08-03T16:52:07.169Z,99530.41
2022-08-03T16:57:09.010Z,99521.06
2022-08-03T17:02:21.379Z,99526.00
2022-08-03T17:07:29.499Z,99530.31
2022-08-03T17:12:31.446Z,99525.66
2022-08-03T17:17:43.010Z,99525.78
2022-08-03T17:23:54.250Z,99528.63
2022-08-03T17:29:13.249Z,99530.56
2022-08-03T17:34:15.297Z,99531.38
2022-08-03T17:39:30.941Z,99528.03
2022-08-03T17:44:46.999Z,99528.13
2022-08-03T17:49:49.547Z,99527.22
2022-08-03T17:55:56.942Z,99531.28
2022-08-03T18:01:01.304Z,99542.94
2022-08-03T18:06:11.106Z,99541.75
2022-08-03T18:11:21.599Z,99542.31
2022-08-03T18:16:30.803Z,99539.25
2022-08-03T18:26:55.935Z,99546.94
2022-08-03T18:32:03.016Z,99547.09
2022-08-03T18:37:07.763Z,99550.78
2022-08-03T18:42:19.384Z,99556.19
2022-08-03T18:47:51.021Z,99555.31
2022-08-03T18:53:15.691Z,99560.25
2022-08-03T18:59:07.814Z,99560.16
2022-08-03T19:04:29.776Z,99563.00
2022-08-03T19:09:38.156Z,99563.94
2022-08-03T19:14:47.414Z,99573.91
2022-08-03T19:19:51.318Z,99590.94
2022-08-03T19:24:55.420Z,99596.31
2022-08-03T19:30:02.905Z,99593.28
2022-08-03T19:35:13.304Z,99602.25
2022-08-03T19:40:20.655Z,99595.25
2022-08-03T19:46:05.370Z,99604.25
2022-08-03T19:50:59.097Z,99603.88
2022-08-03T19:56:05.934Z,99601.03
2022-08-03T20:01:21.213Z,99612.19
2022-08-03T20:06:23.755Z,99611.56
2022-08-03T20:11:28.533Z,99616.53
2022-08-03T20:16:30.783Z,99611.34
2022-08-03T20:21:35.189Z,99610.72
2022-08-03T20:26:42.384Z,99600.38
2022-08-03T20:31:45.026Z,99606.97
2022-08-03T20:36:46.839Z,99601.56
2022-08-03T20:41:48.583Z,99609.59
2022-08-03T20:47:00.272Z,99608.25
2022-08-03T20:52:03.480Z,99615.00
2022-08-03T20:57:09.385Z,99612.22
2022-08-03T21:02:13.138Z,99612.41
2022-08-03T21:07:24.443Z,99611.56
2022-08-03T21:12:57.781Z,99545.56
2022-08-03T21:13:16.856Z,99606.59
2022-08-03T21:18:20.996Z,99611.50
2022-08-03T21:23:34.890Z,99611.78
2022-08-03T21:28:45.559Z,99607.50
2022-08-03T21:33:49.153Z,99611.16
2022-08-03T21:38:56.125Z,99612.91
2022-08-03T21:44:00.735Z,99612.66
2022-08-03T21:50:06.038Z,99605.09
2022-08-03T21:54:41.074Z,99601.63
2022-08-03T21:59:50.993Z,99607.03
2022-08-03T22:04:56.956Z,99610.78
2022-08-03T22:10:02.163Z,99613.59
2022-08-03T22:15:07.437Z,99623.34
2022-08-03T22:20:13.166Z,99625.81
2022-08-03T22:25:16.419Z,99623.72
2022-08-03T22:30:19.678Z,99625.28
2022-08-03T22:35:24.374Z,99627.19
2022-08-03T22:40:28.053Z,99631.16
2022-08-03T22:46:09.615Z,99634.94
2022-08-03T22:50:51.593Z,99634.09
2022-08-03T22:55:53.321Z,99635.13
2022-08-03T23:00:58.590Z,99628.94
2022-08-03T23:06:03.682Z,99629.63
2022-08-03T23:11:10.448Z,99635.72
2022-08-03T23:16:13.770Z,99630.19
2022-08-03T23:21:17.892Z,99635.28
2022-08-03T23:26:41.079Z,99637.88
2022-08-03T23:31:44.763Z,99636.63
2022-08-03T23:36:49.108Z,99639.28
2022-08-03T23:41:52.469Z,99638.94
2022-08-03T23:46:54.637Z,99637.59
2022-08-03T23:52:24.210Z,99647.41
